East Case, MD

7:55 PM EDT on September 03, 2015 (GMT -0400)
Riverside | | Change Station
CLOSE
Current Station
Personal Weather Station
Location: Baltimore, MD
Elevation: 52 ft
Nearby Weather Stations

Elev 52 ft 39.27 °N, 76.61 °W | Updated 4 seconds ago

Mostly Cloudy
Mostly Cloudy
86.7 °F
Feels Like 93 °F
N
0.9
Wind Variable Wind from WNW
Gusts 2.5 mph

Today
High -- | Low -- °F
--% Chance of Precip.
Yesterday
High -- | Low -- °F
Precip. -- in
6:36 AM 7:34 PM
Waning Gibbous, 65% visible
Pressure 29.85 in
Visibility 8.0 miles
Clouds Scattered Clouds 7000 ft
Scattered Clouds 8500 ft
Mostly Cloudy 20000 ft
Heat Index 93 °F
Dew Point 72 °F
Humidity 61%
Rainfall 0.00 in
Snow Depth Not available.
UV 0.0 out of 12
Pollen 10.10 out of 12
Air Quality Not available.
Flu Activity Not available.
METAR KBWI 032254Z 17004KT 8SM SCT070CB SCT085 BKN200 30/22 A2985 RMK AO2 SLP106 CB SW MOV SE CB DSNT SE MOV SE T03000217
Pressure 29.85 in
Visibility 8.0 miles
Clouds Scattered Clouds 7000 ft
Scattered Clouds 8500 ft
Mostly Cloudy 20000 ft
Heat Index 93 °F
Dew Point 72 °F
Humidity 61%
Rainfall 0.00 in
Snow Depth Not available.
UV 0.0 out of 12
Pollen 10.10 out of 12
Air Quality Not available.
Flu Activity Not available.
METAR KBWI 032254Z 17004KT 8SM SCT070CB SCT085 BKN200 30/22 A2985 RMK AO2 SLP106 CB SW MOV SE CB DSNT SE MOV SE T03000217

10-Day Weather Forecast

×

Almanac

Astronomy

Sep. 03, 2015 Rise Set
Actual Time
Civil Twilight
Nautical Twilight
Astronomical Twilight
Moon
Length of Visible Light
Length of Day
Tomorrow will be .
, % of the Moon is Illuminated

Today's Extremes

State Highs State Lows

Community

WunderPhotos

Upload Photos

1,852,063 photos uploaded!

WunderBlogs® & News

Nearby

Air Quality

  Air Quality AQ Index Pollutant
Not available.

Snow Depth

Station Depth Elevation

Earthquake Activity

City Distance Mag. Time & Date
Minimum magnitude displayed is 2.5.

Coastal Water Temperatures

Place Temperature

Stations

Nearby Weather Stations

Station Location Temp. Windchill Dew Point Humidity Wind Precip. Elev Updated Type